sensor_id;sensor_type;location;lat;lon;timestamp;P1;durP1;ratioP1;P2;durP2;ratioP2
54917;SDS011;40818;50.562;7.454;2023-05-16T00:00:34;10.98;;;6.45;;
54917;SDS011;40818;50.562;7.454;2023-05-16T00:10:57;17.27;;;8.00;;
54917;SDS011;40818;50.562;7.454;2023-05-16T00:21:00;11.65;;;6.75;;
54917;SDS011;40818;50.562;7.454;2023-05-16T00:31:06;14.65;;;5.68;;
54917;SDS011;40818;50.562;7.454;2023-05-16T01:03:23;7.55;;;3.00;;
54917;SDS011;40818;50.562;7.454;2023-05-16T01:23:56;5.53;;;1.30;;
54917;SDS011;40818;50.562;7.454;2023-05-16T01:34:10;3.95;;;1.30;;
54917;SDS011;40818;50.562;7.454;2023-05-16T01:44:15;3.03;;;1.10;;
54917;SDS011;40818;50.562;7.454;2023-05-16T01:54:28;2.20;;;1.00;;
54917;SDS011;40818;50.562;7.454;2023-05-16T02:04:40;1.80;;;0.80;;
54917;SDS011;40818;50.562;7.454;2023-05-16T02:25:25;2.53;;;0.90;;
54917;SDS011;40818;50.562;7.454;2023-05-16T02:35:31;1.77;;;0.90;;
54917;SDS011;40818;50.562;7.454;2023-05-16T02:45:35;1.67;;;0.90;;
54917;SDS011;40818;50.562;7.454;2023-05-16T02:55:41;3.10;;;0.80;;
54917;SDS011;40818;50.562;7.454;2023-05-16T03:05:44;1.10;;;0.50;;
54917;SDS011;40818;50.562;7.454;2023-05-16T03:15:51;1.33;;;0.40;;
54917;SDS011;40818;50.562;7.454;2023-05-16T03:25:55;1.17;;;0.40;;
54917;SDS011;40818;50.562;7.454;2023-05-16T03:36:01;0.93;;;0.40;;
54917;SDS011;40818;50.562;7.454;2023-05-16T03:46:04;1.00;;;0.40;;
54917;SDS011;40818;50.562;7.454;2023-05-16T03:56:10;0.90;;;0.40;;
54917;SDS011;40818;50.562;7.454;2023-05-16T04:06:14;1.30;;;0.52;;
54917;SDS011;40818;50.562;7.454;2023-05-16T04:16:19;1.05;;;0.50;;
54917;SDS011;40818;50.562;7.454;2023-05-16T04:26:23;1.38;;;0.40;;
54917;SDS011;40818;50.562;7.454;2023-05-16T04:36:29;0.77;;;0.38;;
54917;SDS011;40818;50.562;7.454;2023-05-16T04:46:34;1.52;;;0.47;;
54917;SDS011;40818;50.562;7.454;2023-05-16T04:56:40;1.15;;;0.30;;
54917;SDS011;40818;50.562;7.454;2023-05-16T05:06:44;0.80;;;0.20;;
54917;SDS011;40818;50.562;7.454;2023-05-16T05:16:49;1.90;;;0.30;;
54917;SDS011;40818;50.562;7.454;2023-05-16T05:26:53;2.75;;;0.30;;
54917;SDS011;40818;50.562;7.454;2023-05-16T05:36:59;3.10;;;0.68;;
54917;SDS011;40818;50.562;7.454;2023-05-16T05:47:02;2.20;;;0.40;;
54917;SDS011;40818;50.562;7.454;2023-05-16T05:57:09;3.75;;;0.50;;
54917;SDS011;40818;50.562;7.454;2023-05-16T06:07:12;5.57;;;0.60;;
54917;SDS011;40818;50.562;7.454;2023-05-16T06:17:20;5.32;;;0.60;;
54917;SDS011;40818;50.562;7.454;2023-05-16T06:27:23;6.70;;;0.85;;
54917;SDS011;40818;50.562;7.454;2023-05-16T06:37:29;6.88;;;0.90;;
54917;SDS011;40818;50.562;7.454;2023-05-16T06:47:33;7.93;;;1.00;;
54917;SDS011;40818;50.562;7.454;2023-05-16T06:57:39;9.57;;;1.08;;
54917;SDS011;40818;50.562;7.454;2023-05-16T07:07:42;11.38;;;0.90;;
54917;SDS011;40818;50.562;7.454;2023-05-16T07:17:49;7.00;;;0.80;;
54917;SDS011;40818;50.562;7.454;2023-05-16T07:27:52;12.98;;;0.90;;
54917;SDS011;40818;50.562;7.454;2023-05-16T07:37:58;5.57;;;0.65;;
54917;SDS011;40818;50.562;7.454;2023-05-16T07:48:02;8.40;;;0.60;;
54917;SDS011;40818;50.562;7.454;2023-05-16T07:58:08;7.15;;;0.45;;
54917;SDS011;40818;50.562;7.454;2023-05-16T08:08:11;5.28;;;0.40;;
54917;SDS011;40818;50.562;7.454;2023-05-16T08:18:17;5.60;;;0.60;;
54917;SDS011;40818;50.562;7.454;2023-05-16T08:28:21;2.53;;;0.40;;
54917;SDS011;40818;50.562;7.454;2023-05-16T08:38:27;7.20;;;0.40;;
54917;SDS011;40818;50.562;7.454;2023-05-16T08:48:30;8.27;;;0.40;;
54917;SDS011;40818;50.562;7.454;2023-05-16T08:58:37;6.78;;;0.40;;
54917;SDS011;40818;50.562;7.454;2023-05-16T09:08:42;7.47;;;0.50;;
54917;SDS011;40818;50.562;7.454;2023-05-16T09:18:54;3.00;;;0.35;;
54917;SDS011;40818;50.562;7.454;2023-05-16T09:28:59;2.40;;;0.30;;
54917;SDS011;40818;50.562;7.454;2023-05-16T09:39:06;2.72;;;0.28;;
54917;SDS011;40818;50.562;7.454;2023-05-16T09:49:10;2.72;;;0.30;;
54917;SDS011;40818;50.562;7.454;2023-05-16T09:59:17;2.60;;;0.20;;
54917;SDS011;40818;50.562;7.454;2023-05-16T10:09:20;2.38;;;0.20;;
54917;SDS011;40818;50.562;7.454;2023-05-16T10:19:27;10.25;;;0.30;;
54917;SDS011;40818;50.562;7.454;2023-05-16T10:29:33;4.88;;;0.30;;
54917;SDS011;40818;50.562;7.454;2023-05-16T10:39:40;2.63;;;0.20;;
54917;SDS011;40818;50.562;7.454;2023-05-16T10:49:44;3.60;;;0.20;;
54917;SDS011;40818;50.562;7.454;2023-05-16T10:59:50;3.30;;;0.30;;
54917;SDS011;40818;50.562;7.454;2023-05-16T11:10:02;2.38;;;0.20;;
54917;SDS011;40818;50.562;7.454;2023-05-16T11:20:16;5.45;;;0.20;;
54917;SDS011;40818;50.562;7.454;2023-05-16T11:30:27;2.17;;;0.17;;
54917;SDS011;40818;50.562;7.454;2023-05-16T11:40:33;2.50;;;0.20;;
54917;SDS011;40818;50.562;7.454;2023-05-16T11:50:36;1.75;;;0.15;;
54917;SDS011;40818;50.562;7.454;2023-05-16T12:00:49;0.90;;;0.10;;
54917;SDS011;40818;50.562;7.454;2023-05-16T12:10:52;4.22;;;0.20;;
54917;SDS011;40818;50.562;7.454;2023-05-16T12:20:58;2.67;;;0.10;;
54917;SDS011;40818;50.562;7.454;2023-05-16T12:31:02;1.02;;;0.20;;
54917;SDS011;40818;50.562;7.454;2023-05-16T12:41:08;1.55;;;0.20;;
54917;SDS011;40818;50.562;7.454;2023-05-16T12:51:12;2.72;;;0.20;;
54917;SDS011;40818;50.562;7.454;2023-05-16T13:01:19;2.30;;;0.20;;
54917;SDS011;40818;50.562;7.454;2023-05-16T13:11:23;1.85;;;0.20;;
54917;SDS011;40818;50.562;7.454;2023-05-16T13:21:29;1.23;;;0.10;;
54917;SDS011;40818;50.562;7.454;2023-05-16T13:31:32;3.97;;;0.30;;
54917;SDS011;40818;50.562;7.454;2023-05-16T13:41:39;5.75;;;0.10;;
54917;SDS011;40818;50.562;7.454;2023-05-16T13:51:44;2.00;;;0.20;;
54917;SDS011;40818;50.562;7.454;2023-05-16T14:01:51;3.05;;;0.25;;
54917;SDS011;40818;50.562;7.454;2023-05-16T14:11:55;5.60;;;0.20;;
54917;SDS011;40818;50.562;7.454;2023-05-16T14:22:01;3.22;;;0.22;;
54917;SDS011;40818;50.562;7.454;2023-05-16T14:32:05;3.20;;;0.20;;
54917;SDS011;40818;50.562;7.454;2023-05-16T14:42:12;3.55;;;0.20;;
54917;SDS011;40818;50.562;7.454;2023-05-16T14:52:15;1.48;;;0.20;;
54917;SDS011;40818;50.562;7.454;2023-05-16T15:02:23;0.73;;;0.10;;
54917;SDS011;40818;50.562;7.454;2023-05-16T15:12:26;1.73;;;0.10;;
54917;SDS011;40818;50.562;7.454;2023-05-16T15:22:32;2.72;;;0.10;;
54917;SDS011;40818;50.562;7.454;2023-05-16T15:32:36;1.25;;;0.10;;
54917;SDS011;40818;50.562;7.454;2023-05-16T15:42:42;2.22;;;0.20;;
54917;SDS011;40818;50.562;7.454;2023-05-16T15:52:48;1.58;;;0.20;;
54917;SDS011;40818;50.562;7.454;2023-05-16T16:13:35;2.28;;;0.10;;
54917;SDS011;40818;50.562;7.454;2023-05-16T16:23:42;0.65;;;0.10;;
54917;SDS011;40818;50.562;7.454;2023-05-16T16:34:09;1.35;;;0.10;;
54917;SDS011;40818;50.562;7.454;2023-05-16T16:44:22;1.15;;;0.10;;
54917;SDS011;40818;50.562;7.454;2023-05-16T16:54:26;2.85;;;0.20;;
54917;SDS011;40818;50.562;7.454;2023-05-16T17:27:04;2.35;;;0.20;;
54917;SDS011;40818;50.562;7.454;2023-05-16T17:37:07;3.55;;;0.20;;
54917;SDS011;40818;50.562;7.454;2023-05-16T17:57:53;4.80;;;0.30;;
54917;SDS011;40818;50.562;7.454;2023-05-16T18:18:18;3.08;;;0.40;;
54917;SDS011;40818;50.562;7.454;2023-05-16T18:39:29;3.65;;;0.40;;
54917;SDS011;40818;50.562;7.454;2023-05-16T18:49:32;3.72;;;0.30;;
54917;SDS011;40818;50.562;7.454;2023-05-16T18:59:40;4.35;;;0.40;;
54917;SDS011;40818;50.562;7.454;2023-05-16T19:09:44;2.95;;;0.40;;
54917;SDS011;40818;50.562;7.454;2023-05-16T19:19:50;3.78;;;0.40;;
54917;SDS011;40818;50.562;7.454;2023-05-16T19:30:06;3.13;;;0.50;;
54917;SDS011;40818;50.562;7.454;2023-05-16T19:41:12;3.42;;;0.38;;
54917;SDS011;40818;50.562;7.454;2023-05-16T19:51:15;2.40;;;0.50;;
54917;SDS011;40818;50.562;7.454;2023-05-16T20:01:21;2.38;;;0.45;;
54917;SDS011;40818;50.562;7.454;2023-05-16T20:22:42;3.03;;;0.40;;
54917;SDS011;40818;50.562;7.454;2023-05-16T20:32:46;2.75;;;0.40;;
54917;SDS011;40818;50.562;7.454;2023-05-16T20:42:52;3.22;;;0.50;;
54917;SDS011;40818;50.562;7.454;2023-05-16T21:03:42;6.47;;;0.50;;
54917;SDS011;40818;50.562;7.454;2023-05-16T21:13:45;3.90;;;0.55;;
54917;SDS011;40818;50.562;7.454;2023-05-16T21:23:51;7.22;;;0.57;;
54917;SDS011;40818;50.562;7.454;2023-05-16T21:33:55;3.95;;;0.50;;
54917;SDS011;40818;50.562;7.454;2023-05-16T21:55:14;4.60;;;0.70;;
54917;SDS011;40818;50.562;7.454;2023-05-16T22:05:32;3.70;;;0.50;;
54917;SDS011;40818;50.562;7.454;2023-05-16T22:16:27;5.13;;;0.50;;
54917;SDS011;40818;50.562;7.454;2023-05-16T22:26:30;8.15;;;0.40;;
54917;SDS011;40818;50.562;7.454;2023-05-16T22:36:36;2.10;;;0.40;;
54917;SDS011;40818;50.562;7.454;2023-05-16T22:46:41;2.75;;;0.43;;
54917;SDS011;40818;50.562;7.454;2023-05-16T22:56:47;2.88;;;0.60;;
54917;SDS011;40818;50.562;7.454;2023-05-16T23:06:50;1.77;;;0.30;;
54917;SDS011;40818;50.562;7.454;2023-05-16T23:16:56;1.77;;;0.40;;
54917;SDS011;40818;50.562;7.454;2023-05-16T23:27:00;2.30;;;0.40;;
54917;SDS011;40818;50.562;7.454;2023-05-16T23:37:09;3.22;;;0.35;;
54917;SDS011;40818;50.562;7.454;2023-05-16T23:47:37;5.03;;;0.40;;
54917;SDS011;40818;50.562;7.454;2023-05-16T23:57:43;4.53;;;0.30;;
